sensor_id;sensor_type;location;lat;lon;timestamp;P1;durP1;ratioP1;P2;durP2;ratioP2
14187;SDS011;7175;51.978;5.330;2024-02-16T00:02:06;45.13;;;42.03;;
14187;SDS011;7175;51.978;5.330;2024-02-16T00:04:35;45.40;;;42.30;;
14187;SDS011;7175;51.978;5.330;2024-02-16T00:07:03;45.80;;;42.70;;
14187;SDS011;7175;51.978;5.330;2024-02-16T00:09:32;46.17;;;43.00;;
14187;SDS011;7175;51.978;5.330;2024-02-16T00:12:02;47.30;;;44.10;;
14187;SDS011;7175;51.978;5.330;2024-02-16T00:14:30;47.93;;;44.73;;
14187;SDS011;7175;51.978;5.330;2024-02-16T00:17:00;46.73;;;43.53;;
14187;SDS011;7175;51.978;5.330;2024-02-16T00:19:29;46.77;;;43.57;;
14187;SDS011;7175;51.978;5.330;2024-02-16T00:21:58;45.03;;;41.93;;
14187;SDS011;7175;51.978;5.330;2024-02-16T00:24:26;45.40;;;42.30;;
14187;SDS011;7175;51.978;5.330;2024-02-16T00:26:58;45.83;;;42.73;;
14187;SDS011;7175;51.978;5.330;2024-02-16T00:29:28;46.50;;;43.30;;
14187;SDS011;7175;51.978;5.330;2024-02-16T00:31:56;45.70;;;42.60;;
14187;SDS011;7175;51.978;5.330;2024-02-16T00:34:25;43.83;;;40.80;;
14187;SDS011;7175;51.978;5.330;2024-02-16T00:36:54;44.97;;;41.87;;
14187;SDS011;7175;51.978;5.330;2024-02-16T00:39:22;43.17;;;40.17;;
14187;SDS011;7175;51.978;5.330;2024-02-16T00:41:51;42.20;;;39.20;;
14187;SDS011;7175;51.978;5.330;2024-02-16T00:44:19;43.00;;;40.00;;
14187;SDS011;7175;51.978;5.330;2024-02-16T00:46:49;43.07;;;40.07;;
14187;SDS011;7175;51.978;5.330;2024-02-16T00:49:18;42.93;;;39.93;;
14187;SDS011;7175;51.978;5.330;2024-02-16T00:51:46;44.03;;;40.93;;
14187;SDS011;7175;51.978;5.330;2024-02-16T00:54:15;42.67;;;39.67;;
14187;SDS011;7175;51.978;5.330;2024-02-16T00:56:43;43.57;;;40.57;;
14187;SDS011;7175;51.978;5.330;2024-02-16T00:59:11;43.27;;;40.27;;
14187;SDS011;7175;51.978;5.330;2024-02-16T01:01:40;43.37;;;40.37;;
14187;SDS011;7175;51.978;5.330;2024-02-16T01:04:09;42.93;;;39.93;;
14187;SDS011;7175;51.978;5.330;2024-02-16T01:06:38;44.00;;;40.90;;
14187;SDS011;7175;51.978;5.330;2024-02-16T01:09:06;45.03;;;41.93;;
14187;SDS011;7175;51.978;5.330;2024-02-16T01:11:34;45.10;;;42.00;;
14187;SDS011;7175;51.978;5.330;2024-02-16T01:14:03;45.00;;;41.90;;
14187;SDS011;7175;51.978;5.330;2024-02-16T01:16:31;44.63;;;41.53;;
14187;SDS011;7175;51.978;5.330;2024-02-16T01:18:59;45.03;;;41.93;;
14187;SDS011;7175;51.978;5.330;2024-02-16T01:21:29;45.33;;;42.13;;
14187;SDS011;7175;51.978;5.330;2024-02-16T01:23:58;46.80;;;43.60;;
14187;SDS011;7175;51.978;5.330;2024-02-16T01:26:27;47.33;;;44.07;;
14187;SDS011;7175;51.978;5.330;2024-02-16T01:28:56;48.80;;;45.50;;
14187;SDS011;7175;51.978;5.330;2024-02-16T01:31:25;48.60;;;45.30;;
14187;SDS011;7175;51.978;5.330;2024-02-16T01:33:53;46.63;;;43.43;;
14187;SDS011;7175;51.978;5.330;2024-02-16T01:36:22;47.40;;;44.20;;
14187;SDS011;7175;51.978;5.330;2024-02-16T01:38:51;48.53;;;45.23;;
14187;SDS011;7175;51.978;5.330;2024-02-16T01:41:20;46.57;;;43.37;;
14187;SDS011;7175;51.978;5.330;2024-02-16T01:43:48;46.70;;;43.40;;
14187;SDS011;7175;51.978;5.330;2024-02-16T01:46:21;45.37;;;42.17;;
14187;SDS011;7175;51.978;5.330;2024-02-16T01:48:50;46.20;;;43.00;;
14187;SDS011;7175;51.978;5.330;2024-02-16T01:51:18;46.37;;;43.17;;
14187;SDS011;7175;51.978;5.330;2024-02-16T01:53:47;47.97;;;44.67;;
14187;SDS011;7175;51.978;5.330;2024-02-16T01:56:18;47.03;;;43.73;;
14187;SDS011;7175;51.978;5.330;2024-02-16T01:58:48;44.90;;;41.70;;
14187;SDS011;7175;51.978;5.330;2024-02-16T02:01:16;46.43;;;43.13;;
14187;SDS011;7175;51.978;5.330;2024-02-16T02:03:45;47.20;;;44.00;;
14187;SDS011;7175;51.978;5.330;2024-02-16T02:06:13;47.30;;;44.10;;
14187;SDS011;7175;51.978;5.330;2024-02-16T02:08:42;43.83;;;40.73;;
14187;SDS011;7175;51.978;5.330;2024-02-16T02:11:10;45.20;;;42.10;;
14187;SDS011;7175;51.978;5.330;2024-02-16T02:13:40;46.17;;;42.97;;
14187;SDS011;7175;51.978;5.330;2024-02-16T02:16:09;42.73;;;39.73;;
14187;SDS011;7175;51.978;5.330;2024-02-16T02:18:38;43.40;;;40.30;;
14187;SDS011;7175;51.978;5.330;2024-02-16T02:21:06;43.97;;;40.87;;
14187;SDS011;7175;51.978;5.330;2024-02-16T02:23:37;45.53;;;42.43;;
14187;SDS011;7175;51.978;5.330;2024-02-16T02:26:05;44.30;;;41.30;;
14187;SDS011;7175;51.978;5.330;2024-02-16T02:28:33;43.93;;;40.83;;
14187;SDS011;7175;51.978;5.330;2024-02-16T02:31:02;44.73;;;41.63;;
14187;SDS011;7175;51.978;5.330;2024-02-16T02:33:30;44.07;;;40.97;;
14187;SDS011;7175;51.978;5.330;2024-02-16T02:35:59;42.87;;;39.87;;
14187;SDS011;7175;51.978;5.330;2024-02-16T02:38:27;42.57;;;39.57;;
14187;SDS011;7175;51.978;5.330;2024-02-16T02:40:58;42.80;;;39.80;;
14187;SDS011;7175;51.978;5.330;2024-02-16T02:43:30;42.27;;;39.27;;
14187;SDS011;7175;51.978;5.330;2024-02-16T02:45:59;42.53;;;39.53;;
14187;SDS011;7175;51.978;5.330;2024-02-16T02:48:27;40.90;;;38.00;;
14187;SDS011;7175;51.978;5.330;2024-02-16T02:50:55;42.10;;;39.10;;
14187;SDS011;7175;51.978;5.330;2024-02-16T02:53:27;42.63;;;39.63;;
14187;SDS011;7175;51.978;5.330;2024-02-16T02:55:57;44.30;;;41.20;;
14187;SDS011;7175;51.978;5.330;2024-02-16T02:58:25;42.70;;;39.70;;
14187;SDS011;7175;51.978;5.330;2024-02-16T03:00:54;42.60;;;39.60;;
14187;SDS011;7175;51.978;5.330;2024-02-16T03:03:22;40.90;;;38.00;;
14187;SDS011;7175;51.978;5.330;2024-02-16T03:05:51;41.20;;;38.30;;
14187;SDS011;7175;51.978;5.330;2024-02-16T03:08:19;42.87;;;39.87;;
14187;SDS011;7175;51.978;5.330;2024-02-16T03:10:47;41.97;;;38.97;;
14187;SDS011;7175;51.978;5.330;2024-02-16T03:13:17;43.93;;;40.90;;
14187;SDS011;7175;51.978;5.330;2024-02-16T03:15:45;43.77;;;40.67;;
14187;SDS011;7175;51.978;5.330;2024-02-16T03:18:14;45.50;;;42.30;;
14187;SDS011;7175;51.978;5.330;2024-02-16T03:20:42;44.67;;;41.57;;
14187;SDS011;7175;51.978;5.330;2024-02-16T03:23:12;44.50;;;41.40;;
14187;SDS011;7175;51.978;5.330;2024-02-16T03:25:41;45.77;;;42.57;;
14187;SDS011;7175;51.978;5.330;2024-02-16T03:28:11;45.90;;;42.70;;
14187;SDS011;7175;51.978;5.330;2024-02-16T03:30:41;47.07;;;43.77;;
14187;SDS011;7175;51.978;5.330;2024-02-16T03:33:09;49.00;;;45.60;;
14187;SDS011;7175;51.978;5.330;2024-02-16T03:35:38;49.10;;;45.60;;
14187;SDS011;7175;51.978;5.330;2024-02-16T03:38:07;48.00;;;44.60;;
14187;SDS011;7175;51.978;5.330;2024-02-16T03:40:35;48.13;;;44.73;;
14187;SDS011;7175;51.978;5.330;2024-02-16T03:43:03;48.07;;;44.67;;
14187;SDS011;7175;51.978;5.330;2024-02-16T03:45:32;49.83;;;46.43;;
14187;SDS011;7175;51.978;5.330;2024-02-16T03:48:02;51.57;;;48.07;;
14187;SDS011;7175;51.978;5.330;2024-02-16T03:50:30;47.73;;;44.33;;
14187;SDS011;7175;51.978;5.330;2024-02-16T03:52:59;47.00;;;43.60;;
14187;SDS011;7175;51.978;5.330;2024-02-16T03:55:27;49.33;;;45.83;;
14187;SDS011;7175;51.978;5.330;2024-02-16T03:57:58;49.20;;;45.80;;
14187;SDS011;7175;51.978;5.330;2024-02-16T04:00:26;49.43;;;45.93;;
14187;SDS011;7175;51.978;5.330;2024-02-16T04:02:55;49.40;;;45.90;;
14187;SDS011;7175;51.978;5.330;2024-02-16T04:05:24;45.73;;;42.40;;
14187;SDS011;7175;51.978;5.330;2024-02-16T04:07:57;45.63;;;42.33;;
14187;SDS011;7175;51.978;5.330;2024-02-16T04:10:31;46.53;;;43.23;;
14187;SDS011;7175;51.978;5.330;2024-02-16T04:13:00;46.87;;;43.57;;
14187;SDS011;7175;51.978;5.330;2024-02-16T04:15:29;48.90;;;45.40;;
14187;SDS011;7175;51.978;5.330;2024-02-16T04:17:58;46.67;;;43.27;;
14187;SDS011;7175;51.978;5.330;2024-02-16T04:20:27;48.80;;;45.30;;
14187;SDS011;7175;51.978;5.330;2024-02-16T04:22:56;49.23;;;45.73;;
14187;SDS011;7175;51.978;5.330;2024-02-16T04:25:24;51.90;;;48.20;;
14187;SDS011;7175;51.978;5.330;2024-02-16T04:27:53;53.00;;;49.20;;
14187;SDS011;7175;51.978;5.330;2024-02-16T04:30:21;51.13;;;47.53;;
14187;SDS011;7175;51.978;5.330;2024-02-16T04:32:49;51.70;;;48.00;;
14187;SDS011;7175;51.978;5.330;2024-02-16T04:35:18;50.30;;;46.70;;
14187;SDS011;7175;51.978;5.330;2024-02-16T04:37:48;51.60;;;48.00;;
14187;SDS011;7175;51.978;5.330;2024-02-16T04:40:16;50.20;;;46.60;;
14187;SDS011;7175;51.978;5.330;2024-02-16T04:42:45;50.20;;;46.60;;
14187;SDS011;7175;51.978;5.330;2024-02-16T04:45:13;51.00;;;47.40;;
14187;SDS011;7175;51.978;5.330;2024-02-16T04:47:41;51.07;;;47.47;;
14187;SDS011;7175;51.978;5.330;2024-02-16T04:50:10;51.97;;;48.27;;
14187;SDS011;7175;51.978;5.330;2024-02-16T04:52:38;52.93;;;49.23;;
14187;SDS011;7175;51.978;5.330;2024-02-16T04:55:08;51.33;;;47.63;;
14187;SDS011;7175;51.978;5.330;2024-02-16T04:57:37;52.00;;;48.30;;
14187;SDS011;7175;51.978;5.330;2024-02-16T05:00:06;51.87;;;48.27;;
14187;SDS011;7175;51.978;5.330;2024-02-16T05:02:36;52.10;;;48.43;;
14187;SDS011;7175;51.978;5.330;2024-02-16T05:05:04;53.40;;;49.70;;
14187;SDS011;7175;51.978;5.330;2024-02-16T05:07:32;53.47;;;49.67;;
14187;SDS011;7175;51.978;5.330;2024-02-16T05:10:02;53.47;;;49.67;;
14187;SDS011;7175;51.978;5.330;2024-02-16T05:12:32;52.70;;;49.03;;
14187;SDS011;7175;51.978;5.330;2024-02-16T05:15:00;54.60;;;50.80;;
14187;SDS011;7175;51.978;5.330;2024-02-16T05:17:30;54.40;;;50.60;;
14187;SDS011;7175;51.978;5.330;2024-02-16T05:19:58;52.17;;;48.47;;
14187;SDS011;7175;51.978;5.330;2024-02-16T05:22:27;51.20;;;47.60;;
14187;SDS011;7175;51.978;5.330;2024-02-16T05:24:55;51.97;;;48.27;;
14187;SDS011;7175;51.978;5.330;2024-02-16T05:27:24;50.20;;;46.60;;
14187;SDS011;7175;51.978;5.330;2024-02-16T05:29:55;50.90;;;47.30;;
14187;SDS011;7175;51.978;5.330;2024-02-16T05:32:23;47.70;;;44.20;;
14187;SDS011;7175;51.978;5.330;2024-02-16T05:34:52;49.47;;;45.90;;
14187;SDS011;7175;51.978;5.330;2024-02-16T05:37:21;46.17;;;42.77;;
14187;SDS011;7175;51.978;5.330;2024-02-16T05:39:50;46.40;;;43.00;;
14187;SDS011;7175;51.978;5.330;2024-02-16T05:42:23;47.57;;;44.07;;
14187;SDS011;7175;51.978;5.330;2024-02-16T05:45:18;45.27;;;41.87;;
14187;SDS011;7175;51.978;5.330;2024-02-16T05:47:48;47.40;;;43.90;;
14187;SDS011;7175;51.978;5.330;2024-02-16T05:50:17;47.90;;;44.40;;
14187;SDS011;7175;51.978;5.330;2024-02-16T05:52:46;45.73;;;42.23;;
14187;SDS011;7175;51.978;5.330;2024-02-16T05:55:17;45.40;;;41.90;;
14187;SDS011;7175;51.978;5.330;2024-02-16T05:57:46;46.77;;;43.27;;
14187;SDS011;7175;51.978;5.330;2024-02-16T06:00:14;44.73;;;41.33;;
14187;SDS011;7175;51.978;5.330;2024-02-16T06:02:44;43.10;;;39.70;;
14187;SDS011;7175;51.978;5.330;2024-02-16T06:05:13;46.07;;;42.67;;
14187;SDS011;7175;51.978;5.330;2024-02-16T06:07:41;44.67;;;41.27;;
14187;SDS011;7175;51.978;5.330;2024-02-16T06:10:09;44.10;;;40.77;;
14187;SDS011;7175;51.978;5.330;2024-02-16T06:12:38;42.40;;;39.10;;
14187;SDS011;7175;51.978;5.330;2024-02-16T06:15:07;43.90;;;40.50;;
14187;SDS011;7175;51.978;5.330;2024-02-16T06:17:36;40.33;;;37.03;;
14187;SDS011;7175;51.978;5.330;2024-02-16T06:20:06;43.10;;;39.70;;
14187;SDS011;7175;51.978;5.330;2024-02-16T06:22:36;43.83;;;40.43;;
14187;SDS011;7175;51.978;5.330;2024-02-16T06:25:04;43.00;;;39.60;;
14187;SDS011;7175;51.978;5.330;2024-02-16T06:27:33;43.20;;;39.80;;
14187;SDS011;7175;51.978;5.330;2024-02-16T06:30:02;42.70;;;39.40;;
14187;SDS011;7175;51.978;5.330;2024-02-16T06:32:31;43.60;;;40.20;;
14187;SDS011;7175;51.978;5.330;2024-02-16T06:35:00;48.50;;;44.70;;
14187;SDS011;7175;51.978;5.330;2024-02-16T06:37:30;47.07;;;43.47;;
14187;SDS011;7175;51.978;5.330;2024-02-16T06:39:59;45.20;;;41.80;;
14187;SDS011;7175;51.978;5.330;2024-02-16T06:42:27;44.00;;;40.60;;
14187;SDS011;7175;51.978;5.330;2024-02-16T06:44:57;43.17;;;39.80;;
14187;SDS011;7175;51.978;5.330;2024-02-16T06:47:25;44.87;;;41.37;;
14187;SDS011;7175;51.978;5.330;2024-02-16T06:49:54;46.00;;;42.40;;
14187;SDS011;7175;51.978;5.330;2024-02-16T06:52:22;46.30;;;42.70;;
14187;SDS011;7175;51.978;5.330;2024-02-16T06:54:52;46.57;;;42.87;;
14187;SDS011;7175;51.978;5.330;2024-02-16T06:57:20;45.93;;;42.23;;
14187;SDS011;7175;51.978;5.330;2024-02-16T06:59:49;46.40;;;42.70;;
14187;SDS011;7175;51.978;5.330;2024-02-16T07:02:19;47.40;;;43.60;;
14187;SDS011;7175;51.978;5.330;2024-02-16T07:04:48;42.37;;;38.60;;
14187;SDS011;7175;51.978;5.330;2024-02-16T07:07:16;51.77;;;47.37;;
14187;SDS011;7175;51.978;5.330;2024-02-16T07:09:45;50.97;;;46.57;;
14187;SDS011;7175;51.978;5.330;2024-02-16T07:12:15;50.37;;;46.03;;
14187;SDS011;7175;51.978;5.330;2024-02-16T07:14:43;50.20;;;45.80;;
14187;SDS011;7175;51.978;5.330;2024-02-16T07:17:13;45.27;;;41.17;;
14187;SDS011;7175;51.978;5.330;2024-02-16T07:19:41;43.37;;;39.37;;
14187;SDS011;7175;51.978;5.330;2024-02-16T07:22:10;44.40;;;40.40;;
14187;SDS011;7175;51.978;5.330;2024-02-16T07:24:39;41.63;;;37.73;;
14187;SDS011;7175;51.978;5.330;2024-02-16T07:27:07;43.60;;;39.60;;
14187;SDS011;7175;51.978;5.330;2024-02-16T07:29:38;42.47;;;38.57;;
14187;SDS011;7175;51.978;5.330;2024-02-16T07:32:06;41.33;;;37.43;;
14187;SDS011;7175;51.978;5.330;2024-02-16T07:34:35;42.17;;;38.27;;
14187;SDS011;7175;51.978;5.330;2024-02-16T07:37:04;41.47;;;37.57;;
14187;SDS011;7175;51.978;5.330;2024-02-16T07:39:34;38.20;;;34.60;;
14187;SDS011;7175;51.978;5.330;2024-02-16T07:42:02;39.33;;;35.63;;
14187;SDS011;7175;51.978;5.330;2024-02-16T07:44:31;39.07;;;35.27;;
14187;SDS011;7175;51.978;5.330;2024-02-16T07:47:01;37.13;;;33.53;;
14187;SDS011;7175;51.978;5.330;2024-02-16T07:49:29;38.87;;;35.17;;
14187;SDS011;7175;51.978;5.330;2024-02-16T07:51:58;38.13;;;34.43;;
14187;SDS011;7175;51.978;5.330;2024-02-16T07:54:26;36.33;;;32.87;;
14187;SDS011;7175;51.978;5.330;2024-02-16T07:56:55;35.30;;;31.90;;
14187;SDS011;7175;51.978;5.330;2024-02-16T07:59:27;34.90;;;31.60;;
14187;SDS011;7175;51.978;5.330;2024-02-16T08:01:56;35.27;;;31.87;;
14187;SDS011;7175;51.978;5.330;2024-02-16T08:04:26;34.47;;;31.17;;
14187;SDS011;7175;51.978;5.330;2024-02-16T08:06:54;33.50;;;30.30;;
14187;SDS011;7175;51.978;5.330;2024-02-16T08:09:23;33.97;;;30.77;;
14187;SDS011;7175;51.978;5.330;2024-02-16T08:11:51;34.97;;;31.70;;
14187;SDS011;7175;51.978;5.330;2024-02-16T08:14:20;33.97;;;30.77;;
14187;SDS011;7175;51.978;5.330;2024-02-16T08:16:48;32.33;;;29.33;;
14187;SDS011;7175;51.978;5.330;2024-02-16T08:19:31;34.10;;;31.00;;
14187;SDS011;7175;51.978;5.330;2024-02-16T08:22:01;32.33;;;29.33;;
14187;SDS011;7175;51.978;5.330;2024-02-16T08:24:31;33.27;;;30.17;;
14187;SDS011;7175;51.978;5.330;2024-02-16T08:27:00;32.07;;;29.07;;
14187;SDS011;7175;51.978;5.330;2024-02-16T08:29:28;32.67;;;29.57;;
14187;SDS011;7175;51.978;5.330;2024-02-16T08:31:57;31.33;;;28.33;;
14187;SDS011;7175;51.978;5.330;2024-02-16T08:34:26;30.83;;;27.93;;
14187;SDS011;7175;51.978;5.330;2024-02-16T08:36:55;30.80;;;27.80;;
14187;SDS011;7175;51.978;5.330;2024-02-16T08:39:23;31.00;;;28.00;;
14187;SDS011;7175;51.978;5.330;2024-02-16T08:41:52;31.33;;;28.33;;
14187;SDS011;7175;51.978;5.330;2024-02-16T08:44:20;30.50;;;27.60;;
14187;SDS011;7175;51.978;5.330;2024-02-16T08:46:49;30.50;;;27.57;;
14187;SDS011;7175;51.978;5.330;2024-02-16T08:49:17;30.80;;;27.90;;
14187;SDS011;7175;51.978;5.330;2024-02-16T08:51:47;31.10;;;28.20;;
14187;SDS011;7175;51.978;5.330;2024-02-16T08:54:16;32.17;;;29.27;;
14187;SDS011;7175;51.978;5.330;2024-02-16T08:56:45;31.67;;;28.77;;
14187;SDS011;7175;51.978;5.330;2024-02-16T08:59:14;29.53;;;26.73;;
14187;SDS011;7175;51.978;5.330;2024-02-16T09:01:43;27.60;;;25.00;;
14187;SDS011;7175;51.978;5.330;2024-02-16T09:04:11;25.87;;;23.37;;
14187;SDS011;7175;51.978;5.330;2024-02-16T09:06:40;26.97;;;24.37;;
14187;SDS011;7175;51.978;5.330;2024-02-16T09:09:10;27.80;;;25.20;;
14187;SDS011;7175;51.978;5.330;2024-02-16T09:11:38;27.43;;;24.83;;
14187;SDS011;7175;51.978;5.330;2024-02-16T09:14:06;27.87;;;25.27;;
14187;SDS011;7175;51.978;5.330;2024-02-16T09:16:35;28.83;;;26.13;;
14187;SDS011;7175;51.978;5.330;2024-02-16T09:19:03;30.67;;;27.77;;
14187;SDS011;7175;51.978;5.330;2024-02-16T09:21:32;33.43;;;30.33;;
14187;SDS011;7175;51.978;5.330;2024-02-16T09:24:00;36.00;;;32.70;;
14187;SDS011;7175;51.978;5.330;2024-02-16T09:26:31;36.07;;;32.77;;
14187;SDS011;7175;51.978;5.330;2024-02-16T09:29:01;35.20;;;31.90;;
14187;SDS011;7175;51.978;5.330;2024-02-16T09:31:31;36.00;;;32.67;;
14187;SDS011;7175;51.978;5.330;2024-02-16T09:34:00;34.03;;;30.83;;
14187;SDS011;7175;51.978;5.330;2024-02-16T09:36:29;34.27;;;31.07;;
14187;SDS011;7175;51.978;5.330;2024-02-16T09:38:57;34.70;;;31.40;;
14187;SDS011;7175;51.978;5.330;2024-02-16T09:41:26;36.70;;;33.30;;
14187;SDS011;7175;51.978;5.330;2024-02-16T09:43:56;36.00;;;32.70;;
14187;SDS011;7175;51.978;5.330;2024-02-16T09:46:24;35.83;;;32.53;;
14187;SDS011;7175;51.978;5.330;2024-02-16T09:48:54;34.40;;;31.20;;
14187;SDS011;7175;51.978;5.330;2024-02-16T09:51:23;33.77;;;30.57;;
14187;SDS011;7175;51.978;5.330;2024-02-16T09:53:51;34.80;;;31.60;;
14187;SDS011;7175;51.978;5.330;2024-02-16T09:56:24;36.50;;;33.20;;
14187;SDS011;7175;51.978;5.330;2024-02-16T09:58:53;36.97;;;33.60;;
14187;SDS011;7175;51.978;5.330;2024-02-16T10:01:24;38.10;;;34.70;;
14187;SDS011;7175;51.978;5.330;2024-02-16T10:03:53;40.40;;;36.80;;
14187;SDS011;7175;51.978;5.330;2024-02-16T10:06:21;47.67;;;43.67;;
14187;SDS011;7175;51.978;5.330;2024-02-16T10:08:50;44.67;;;40.83;;
14187;SDS011;7175;51.978;5.330;2024-02-16T10:11:19;40.90;;;37.20;;
14187;SDS011;7175;51.978;5.330;2024-02-16T10:13:54;39.07;;;35.57;;
14187;SDS011;7175;51.978;5.330;2024-02-16T10:16:25;39.10;;;35.60;;
14187;SDS011;7175;51.978;5.330;2024-02-16T10:18:54;38.73;;;35.23;;
14187;SDS011;7175;51.978;5.330;2024-02-16T10:21:24;40.03;;;36.53;;
14187;SDS011;7175;51.978;5.330;2024-02-16T10:23:59;40.30;;;36.70;;
14187;SDS011;7175;51.978;5.330;2024-02-16T10:26:29;39.73;;;36.23;;
14187;SDS011;7175;51.978;5.330;2024-02-16T10:28:57;39.90;;;36.33;;
14187;SDS011;7175;51.978;5.330;2024-02-16T10:31:30;40.53;;;36.93;;
14187;SDS011;7175;51.978;5.330;2024-02-16T10:34:00;39.77;;;36.17;;
14187;SDS011;7175;51.978;5.330;2024-02-16T10:36:34;42.63;;;38.93;;
14187;SDS011;7175;51.978;5.330;2024-02-16T10:39:03;41.87;;;38.17;;
14187;SDS011;7175;51.978;5.330;2024-02-16T10:41:34;43.77;;;39.97;;
14187;SDS011;7175;51.978;5.330;2024-02-16T10:44:03;43.37;;;39.57;;
14187;SDS011;7175;51.978;5.330;2024-02-16T10:46:34;45.53;;;41.60;;
14187;SDS011;7175;51.978;5.330;2024-02-16T10:49:03;47.90;;;43.80;;
14187;SDS011;7175;51.978;5.330;2024-02-16T10:51:34;50.60;;;46.30;;
14187;SDS011;7175;51.978;5.330;2024-02-16T10:54:05;52.93;;;48.43;;
14187;SDS011;7175;51.978;5.330;2024-02-16T10:56:34;56.07;;;51.43;;
14187;SDS011;7175;51.978;5.330;2024-02-16T10:59:02;57.73;;;52.93;;
14187;SDS011;7175;51.978;5.330;2024-02-16T11:01:32;61.20;;;56.10;;
14187;SDS011;7175;51.978;5.330;2024-02-16T11:04:04;63.00;;;57.70;;
14187;SDS011;7175;51.978;5.330;2024-02-16T11:06:54;64.57;;;59.27;;
14187;SDS011;7175;51.978;5.330;2024-02-16T11:09:26;65.40;;;60.00;;
14187;SDS011;7175;51.978;5.330;2024-02-16T11:11:58;65.30;;;59.90;;
14187;SDS011;7175;51.978;5.330;2024-02-16T11:14:33;63.90;;;58.50;;
14187;SDS011;7175;51.978;5.330;2024-02-16T11:17:03;64.40;;;59.00;;
14187;SDS011;7175;51.978;5.330;2024-02-16T11:19:37;62.50;;;57.10;;
14187;SDS011;7175;51.978;5.330;2024-02-16T11:22:06;63.00;;;57.53;;
14187;SDS011;7175;51.978;5.330;2024-02-16T11:24:35;63.20;;;57.80;;
14187;SDS011;7175;51.978;5.330;2024-02-16T11:27:04;64.53;;;58.93;;
14187;SDS011;7175;51.978;5.330;2024-02-16T11:29:33;64.10;;;58.50;;
14187;SDS011;7175;51.978;5.330;2024-02-16T11:32:02;66.37;;;60.47;;
14187;SDS011;7175;51.978;5.330;2024-02-16T11:34:31;64.97;;;59.27;;
14187;SDS011;7175;51.978;5.330;2024-02-16T11:37:01;65.00;;;59.40;;
14187;SDS011;7175;51.978;5.330;2024-02-16T11:39:31;65.57;;;60.10;;
14187;SDS011;7175;51.978;5.330;2024-02-16T11:42:03;64.77;;;59.27;;
14187;SDS011;7175;51.978;5.330;2024-02-16T11:44:32;64.03;;;58.57;;
14187;SDS011;7175;51.978;5.330;2024-02-16T11:47:01;64.43;;;58.83;;
14187;SDS011;7175;51.978;5.330;2024-02-16T11:49:29;66.30;;;60.60;;
14187;SDS011;7175;51.978;5.330;2024-02-16T11:51:59;65.27;;;59.67;;
14187;SDS011;7175;51.978;5.330;2024-02-16T11:54:28;66.67;;;60.97;;
14187;SDS011;7175;51.978;5.330;2024-02-16T11:56:57;64.73;;;59.13;;
14187;SDS011;7175;51.978;5.330;2024-02-16T11:59:26;67.20;;;61.40;;
14187;SDS011;7175;51.978;5.330;2024-02-16T12:01:55;66.03;;;60.33;;
14187;SDS011;7175;51.978;5.330;2024-02-16T12:04:24;66.10;;;60.40;;
14187;SDS011;7175;51.978;5.330;2024-02-16T12:06:55;65.20;;;59.57;;
14187;SDS011;7175;51.978;5.330;2024-02-16T12:09:31;66.23;;;60.47;;
14187;SDS011;7175;51.978;5.330;2024-02-16T12:12:02;64.03;;;58.43;;
14187;SDS011;7175;51.978;5.330;2024-02-16T12:14:30;67.20;;;61.40;;
14187;SDS011;7175;51.978;5.330;2024-02-16T12:16:59;68.57;;;62.77;;
14187;SDS011;7175;51.978;5.330;2024-02-16T12:19:28;66.97;;;61.17;;
14187;SDS011;7175;51.978;5.330;2024-02-16T12:21:57;66.50;;;60.80;;
14187;SDS011;7175;51.978;5.330;2024-02-16T12:24:25;66.53;;;60.83;;
14187;SDS011;7175;51.978;5.330;2024-02-16T12:26:55;67.80;;;62.10;;
14187;SDS011;7175;51.978;5.330;2024-02-16T12:29:23;67.23;;;61.53;;
14187;SDS011;7175;51.978;5.330;2024-02-16T12:31:52;69.70;;;63.90;;
14187;SDS011;7175;51.978;5.330;2024-02-16T12:34:20;66.63;;;60.90;;
14187;SDS011;7175;51.978;5.330;2024-02-16T12:36:49;76.43;;;70.00;;
14187;SDS011;7175;51.978;5.330;2024-02-16T12:39:17;75.17;;;68.77;;
14187;SDS011;7175;51.978;5.330;2024-02-16T12:41:46;79.43;;;73.00;;
14187;SDS011;7175;51.978;5.330;2024-02-16T12:44:16;73.07;;;66.87;;
14187;SDS011;7175;51.978;5.330;2024-02-16T12:46:45;73.87;;;67.57;;
14187;SDS011;7175;51.978;5.330;2024-02-16T12:49:13;74.77;;;68.50;;
14187;SDS011;7175;51.978;5.330;2024-02-16T12:51:42;77.10;;;70.73;;
14187;SDS011;7175;51.978;5.330;2024-02-16T12:54:11;85.97;;;79.17;;
14187;SDS011;7175;51.978;5.330;2024-02-16T12:56:41;85.43;;;78.60;;
14187;SDS011;7175;51.978;5.330;2024-02-16T12:59:11;89.27;;;82.30;;
14187;SDS011;7175;51.978;5.330;2024-02-16T13:01:41;90.73;;;83.53;;
14187;SDS011;7175;51.978;5.330;2024-02-16T13:04:10;93.10;;;85.67;;
14187;SDS011;7175;51.978;5.330;2024-02-16T13:06:39;88.50;;;81.50;;
14187;SDS011;7175;51.978;5.330;2024-02-16T13:09:07;87.90;;;81.10;;
14187;SDS011;7175;51.978;5.330;2024-02-16T13:11:36;83.23;;;76.43;;
14187;SDS011;7175;51.978;5.330;2024-02-16T13:14:06;83.67;;;76.87;;
14187;SDS011;7175;51.978;5.330;2024-02-16T13:16:34;86.03;;;79.30;;
14187;SDS011;7175;51.978;5.330;2024-02-16T13:19:04;91.63;;;84.63;;
14187;SDS011;7175;51.978;5.330;2024-02-16T13:21:32;91.97;;;84.73;;
14187;SDS011;7175;51.978;5.330;2024-02-16T13:24:01;88.77;;;81.67;;
14187;SDS011;7175;51.978;5.330;2024-02-16T13:26:30;85.77;;;79.27;;
14187;SDS011;7175;51.978;5.330;2024-02-16T13:28:59;85.17;;;78.77;;
14187;SDS011;7175;51.978;5.330;2024-02-16T13:31:27;84.70;;;78.40;;
14187;SDS011;7175;51.978;5.330;2024-02-16T13:33:55;84.20;;;77.90;;
14187;SDS011;7175;51.978;5.330;2024-02-16T13:36:25;81.27;;;75.10;;
14187;SDS011;7175;51.978;5.330;2024-02-16T13:38:53;79.50;;;73.50;;
14187;SDS011;7175;51.978;5.330;2024-02-16T13:41:22;74.90;;;69.20;;
14187;SDS011;7175;51.978;5.330;2024-02-16T13:43:50;75.80;;;70.10;;
14187;SDS011;7175;51.978;5.330;2024-02-16T13:46:20;66.83;;;61.53;;
14187;SDS011;7175;51.978;5.330;2024-02-16T13:48:48;63.47;;;58.37;;
14187;SDS011;7175;51.978;5.330;2024-02-16T13:51:17;57.97;;;53.27;;
14187;SDS011;7175;51.978;5.330;2024-02-16T13:53:47;57.73;;;53.07;;
14187;SDS011;7175;51.978;5.330;2024-02-16T13:56:16;58.37;;;53.77;;
14187;SDS011;7175;51.978;5.330;2024-02-16T13:58:44;57.97;;;53.37;;
14187;SDS011;7175;51.978;5.330;2024-02-16T14:01:13;51.10;;;46.80;;
14187;SDS011;7175;51.978;5.330;2024-02-16T14:03:42;47.53;;;43.43;;
14187;SDS011;7175;51.978;5.330;2024-02-16T14:06:11;52.43;;;48.13;;
14187;SDS011;7175;51.978;5.330;2024-02-16T14:08:39;54.10;;;49.70;;
14187;SDS011;7175;51.978;5.330;2024-02-16T14:11:09;50.30;;;46.10;;
14187;SDS011;7175;51.978;5.330;2024-02-16T14:13:37;46.90;;;42.90;;
14187;SDS011;7175;51.978;5.330;2024-02-16T14:16:06;48.47;;;44.37;;
14187;SDS011;7175;51.978;5.330;2024-02-16T14:18:36;50.87;;;46.67;;
14187;SDS011;7175;51.978;5.330;2024-02-16T14:21:05;51.70;;;47.43;;
14187;SDS011;7175;51.978;5.330;2024-02-16T14:23:33;49.40;;;45.20;;
14187;SDS011;7175;51.978;5.330;2024-02-16T14:26:01;51.33;;;47.10;;
14187;SDS011;7175;51.978;5.330;2024-02-16T14:28:32;52.70;;;48.30;;
14187;SDS011;7175;51.978;5.330;2024-02-16T14:31:00;56.70;;;52.00;;
14187;SDS011;7175;51.978;5.330;2024-02-16T14:33:29;54.77;;;50.23;;
14187;SDS011;7175;51.978;5.330;2024-02-16T14:36:00;56.87;;;52.27;;
14187;SDS011;7175;51.978;5.330;2024-02-16T14:38:29;60.13;;;55.33;;
14187;SDS011;7175;51.978;5.330;2024-02-16T14:40:57;61.77;;;56.87;;
14187;SDS011;7175;51.978;5.330;2024-02-16T14:43:29;61.03;;;56.13;;
14187;SDS011;7175;51.978;5.330;2024-02-16T14:45:59;66.07;;;60.87;;